createdAt,value
2017-06-10T00:00:56.993Z,0
2017-06-10T00:10:57.023Z,0
2017-06-10T00:20:57.133Z,0
2017-06-10T00:30:57.036Z,0
2017-06-10T00:40:57.013Z,0
2017-06-10T00:50:57.028Z,0
2017-06-10T01:00:57.423Z,0
2017-06-10T01:10:57.038Z,0
2017-06-10T01:20:59.955Z,0
2017-06-10T01:30:56.953Z,0
2017-06-10T01:40:57.014Z,0
2017-06-10T01:50:56.956Z,0
2017-06-10T02:00:57.407Z,0
2017-06-10T02:10:56.995Z,0
2017-06-10T02:20:56.927Z,4
2017-06-10T02:30:56.999Z,4
2017-06-10T02:40:56.969Z,16
2017-06-10T02:50:56.977Z,52
2017-06-10T03:00:57.045Z,140
2017-06-10T03:10:56.951Z,296
2017-06-10T03:20:56.918Z,544
2017-06-10T03:30:56.971Z,888
2017-06-10T03:40:56.932Z,1312
2017-06-10T03:50:56.990Z,1808
2017-06-10T04:00:56.978Z,2384
2017-06-10T04:10:56.934Z,3012
2017-06-10T04:20:56.990Z,2932
2017-06-10T04:31:06.736Z,3452
2017-06-10T04:40:56.902Z,3764
2017-06-10T04:50:57.081Z,4164
2017-06-10T05:00:56.930Z,9100
2017-06-10T05:10:56.981Z,6000
2017-06-10T05:20:56.955Z,23168
2017-06-10T05:30:56.927Z,5492
2017-06-10T05:40:56.992Z,8668
2017-06-10T05:50:56.945Z,39072
2017-06-10T06:00:56.923Z,46304
2017-06-10T06:10:56.990Z,54368
2017-06-10T06:20:56.918Z,54080
2017-06-10T06:30:56.994Z,65728
2017-06-10T06:40:56.955Z,60576
2017-06-10T06:50:57.060Z,69344
2017-06-10T07:00:56.987Z,59392
2017-06-10T07:10:56.939Z,55584
2017-06-10T07:20:57.607Z,59488
2017-06-10T07:30:56.953Z,76704
2017-06-10T07:40:57.016Z,73440
2017-06-10T07:50:57.111Z,74944
2017-06-10T08:00:57.055Z,79552
2017-06-10T08:10:57.076Z,71648
2017-06-10T08:20:56.988Z,78112
2017-06-10T08:30:57.113Z,92448
2017-06-10T08:40:56.991Z,86272
2017-06-10T08:50:57.066Z,92192
2017-06-10T09:00:57.064Z,21344
2017-06-10T09:10:56.987Z,5964
2017-06-10T09:20:57.092Z,12952
2017-06-10T09:30:57.025Z,22368
2017-06-10T09:40:57.095Z,21952
2017-06-10T09:50:57.095Z,23744
2017-06-10T10:00:57.037Z,27264
2017-06-10T10:10:57.114Z,24320
2017-06-10T10:20:57.092Z,17224
2017-06-10T10:30:57.117Z,22176
2017-06-10T10:40:57.078Z,22880
2017-06-10T10:50:57.016Z,23392
2017-06-10T11:00:57.130Z,22400
2017-06-10T11:10:57.023Z,20064
2017-06-10T11:20:57.091Z,19264
2017-06-10T11:30:57.059Z,21856
2017-06-10T11:40:57.159Z,8560
2017-06-10T11:50:57.080Z,14500
2017-06-10T12:00:57.066Z,8832
2017-06-10T12:10:57.096Z,7892
2017-06-10T12:20:57.220Z,9748
2017-06-10T12:30:57.146Z,7688
2017-06-10T12:40:57.092Z,10880
2017-06-10T12:50:57.170Z,6988
2017-06-10T13:00:57.326Z,8272
2017-06-10T13:10:57.357Z,5960
2017-06-10T13:20:57.082Z,14556
2017-06-10T13:30:57.162Z,16028
2017-06-10T13:40:57.051Z,16680
2017-06-10T13:50:57.177Z,15336
2017-06-10T14:00:58.099Z,16116
2017-06-10T14:10:57.133Z,12364
2017-06-10T14:20:57.172Z,13840
2017-06-10T14:30:57.103Z,14224
2017-06-10T14:40:57.159Z,11756
2017-06-10T14:50:57.107Z,15572
2017-06-10T15:00:57.030Z,15332
2017-06-10T15:10:57.094Z,11464
2017-06-10T15:20:57.059Z,12124
2017-06-10T15:30:57.096Z,11976
2017-06-10T15:40:57.088Z,10944
2017-06-10T15:50:57.150Z,9360
2017-06-10T16:00:57.666Z,10108
2017-06-10T16:10:57.073Z,9864
2017-06-10T16:20:57.171Z,7940
2017-06-10T16:30:57.102Z,7852
2017-06-10T16:40:57.172Z,6528
2017-06-10T16:50:57.380Z,4064
2017-06-10T17:00:57.251Z,3208
2017-06-10T17:10:57.181Z,2812
2017-06-10T17:20:57.105Z,2492
2017-06-10T17:30:57.183Z,5412
2017-06-10T17:40:57.353Z,4792
2017-06-10T17:50:57.124Z,3868
2017-06-10T18:00:58.222Z,3200
2017-06-10T18:10:57.455Z,2748
2017-06-10T18:20:57.255Z,2596
2017-06-10T18:30:57.133Z,1800
2017-06-10T18:40:57.224Z,1668
2017-06-10T18:50:57.171Z,1360
2017-06-10T19:00:57.154Z,1064
2017-06-10T19:10:57.295Z,912
2017-06-10T19:20:57.207Z,696
2017-06-10T19:30:57.168Z,504
2017-06-10T19:40:57.160Z,312
2017-06-10T19:50:57.292Z,168
2017-06-10T20:00:57.200Z,76
2017-06-10T20:10:57.176Z,28
2017-06-10T20:20:57.107Z,12
2017-06-10T20:30:57.204Z,4
2017-06-10T20:40:57.178Z,4
2017-06-10T20:50:57.105Z,4
2017-06-10T21:00:58.397Z,4
2017-06-10T21:10:57.119Z,4
2017-06-10T21:20:58.102Z,0
2017-06-10T21:30:59.387Z,0
2017-06-10T21:40:58.275Z,0
2017-06-10T21:50:57.340Z,4
2017-06-10T22:00:59.186Z,0
2017-06-10T22:11:00.525Z,0
2017-06-10T22:21:01.159Z,0
2017-06-10T22:30:58.125Z,0
2017-06-10T22:40:57.166Z,0
2017-06-10T22:50:57.111Z,0
2017-06-10T23:01:03.260Z,0
2017-06-10T23:10:57.295Z,0
2017-06-10T23:20:57.183Z,0
2017-06-10T23:30:59.154Z,0
2017-06-10T23:40:57.180Z,0
2017-06-10T23:50:57.136Z,0
